Terminal Aerodrome Forecast
Issued by NWS

Home | Current Version | Previous Version | Graphics & Text | Print | Product List | Glossary On
Versions: 1 2 3 4 5 6 7 8 9 10 11 12 13 14 15 16 17 18 19 20 21 22 23 24
000
FTUS43 KPAH 181002 AAB
TAFOWB
TAF AMD
KOWB 181002Z 1810/1906 00000KT 4SM BR SKC
      TEMPO 1810/1814 1SM BR
     FM181400 10003KT 4SM BR FEW200
     FM181500 12008KT P6SM SCT200
     FM190300 16009KT P6SM SCT035 BKN100=

USA.gov is the U.S. government's official web portal to all federal, state and local government web resources and services.